• Join FlightAware (Why Join?)
  • Login
  • US Flag 
10:55PM EDT


 

Airport Tracker/Info


-or-


 

Live Flight TrackerFlight Track Log ✈ EGF4393 ✈ 30-Apr-2013 ✈ KORD - KCWA

Flight Track Log - Related Links

Times and Time Zones

All times are in EDT time to prevent confusion due to time zone crossing. See the EGF4393 flight status page for this flight to view local times or setup timezone preferences in your user account.

Time Position Orientation Groundspeed Altitude Reporting Facility
EDT Latitude Longitude Course Direction KTS MPH feet Rate Location/Type
03:39PM 41.9667 -87.9667 346° North 182 209 2,400  Level Chicago TRACON
03:40PM 41.9667 -88.0500 270° West 230 265 4,500 1,260 Climbing Chicago TRACON
03:41PM 42.2497 -87.9916 350° North  Level FlightAware Approximate
03:41PM 41.9667 -88.1167 270° West 241 277 4,900  Level Chicago TRACON
03:41PM 41.9628 -88.1472 260° West 235 270 5,300 2,100 Climbing Chicago Center
03:42PM 42.3457 -88.0156 350° North  Level FlightAware Approximate
03:42PM 41.9989 -88.2222 303° West 278 320 7,900  Level Chicago Center
03:43PM 42.4385 -88.0544 352° North  Level FlightAware Approximate
03:43PM 42.0894 -88.1500 31° Northeast 327 376 10,700  Level Chicago Center
03:44PM 42.5310 -88.0881 346° North  Level FlightAware Approximate
03:44PM 42.1617 -88.0719 39° Northeast 335 386 13,100  Level Chicago Center
03:45PM 42.2514 -88.0519 North 333 383 15,000 1,980 Climbing Chicago Center
03:46PM 42.3428 -88.0456 North 334 384 17,300 1,980 Climbing Chicago Center
03:47PM 42.4481 -88.0844 345° North 337 388 19,200 1,680 Climbing Chicago Center
03:48PM 42.5353 -88.1450 333° Northwest 348 400 20,800 1,320 Climbing Chicago Center
03:49PM 42.6264 -88.2064 334° Northwest 361 415 22,000 540 Climbing Chicago Center
03:50PM 42.7242 -88.2700 334° Northwest 386 444 22,000  Level Chicago Center
03:51PM 42.8289 -88.3386 334° Northwest 411 473 22,000  Level Chicago Center
03:52PM 42.9350 -88.4075 335° Northwest 420 483 22,000  Level Chicago Center
03:53PM 43.0569 -88.4892 334° Northwest 417 480 22,000  Level Chicago Center
03:54PM 43.1600 -88.5572 334° Northwest 410 472 22,000  Level Chicago Center
03:55PM 43.2636 -88.6269 334° Northwest 410 472 22,000  Level Chicago Center
03:56PM 43.3689 -88.6969 334° Northwest 412 474 22,000 -120 Level Chicago Center
03:57PM 43.4739 -88.7675 334° Northwest 412 474 21,800 -780 Descending Chicago Center
03:58PM 43.5722 -88.8347 334° Northwest 396 456 20,400 -1,440 Descending Chicago Center
04:00PM 43.6719 -88.9008 334° Northwest 393 452 18,900 -1,500 Descending Chicago Center
04:00PM 43.7228 -88.9339 335° Northwest 397 457 18,200 -1,620 Descending Minneapolis Center
04:01PM 43.8244 -89.0039 334° Northwest 405 466 16,500 -1,560 Descending Minneapolis Center
04:02PM 43.9239 -89.0714 334° Northwest 398 458 15,000 -1,320 Descending Minneapolis Center
04:03PM 44.0378 -89.1506 333° Northwest 396 456 13,900 -1,440 Descending Minneapolis Center
04:04PM 44.1283 -89.2144 333° Northwest 382 440 12,100 -1,560 Descending Minneapolis Center
04:05PM 44.2228 -89.2792 334° Northwest 367 422 10,700 -1,080 Descending Minneapolis Center
04:06PM 44.3078 -89.3381 334° Northwest 322 371 9,900 -1,440 Descending Minneapolis Center
04:07PM 44.3825 -89.3914 333° Northwest 291 335 7,800 -2,040 Descending Minneapolis Center
04:08PM 44.4556 -89.4431 333° Northwest 282 325 5,800 -1,620 Descending Minneapolis Center
04:09PM 44.5206 -89.4883 334° Northwest 275 316 4,600 -1,080 Descending Minneapolis Center
04:10PM 44.5858 -89.5356 333° Northwest 255 293 3,600 -780 Descending Minneapolis Center
04:11PM 44.6344 -89.5606 340° North 240 276 3,000 -600 Descending Minneapolis Center